createdAt,value
2022-09-27T07:55:44.217Z,100.00
2022-09-27T07:58:22.484Z,100.00
2022-09-27T08:00:58.040Z,100.00
2022-09-27T08:18:53.261Z,100.00
2022-09-27T08:21:59.821Z,100.00
2022-09-27T08:31:03.612Z,100.00
2022-09-27T08:33:39.149Z,100.00
2022-09-27T08:36:12.310Z,100.00
2022-09-27T08:38:49.758Z,100.00
2022-09-27T08:44:33.075Z,100.00
2022-09-27T08:47:18.363Z,100.00
2022-09-27T08:49:53.822Z,100.00
2022-09-27T08:52:27.724Z,100.00
2022-09-27T08:55:00.059Z,100.00
2022-09-27T08:57:28.043Z,100.00
2022-09-27T09:00:02.735Z,100.00
2022-09-27T09:02:31.166Z,100.00
2022-09-27T09:05:04.057Z,100.00
2022-09-27T09:07:50.021Z,100.00
2022-09-27T09:10:50.661Z,100.00
2022-09-27T09:13:29.128Z,100.00
2022-09-27T09:16:11.718Z,100.00
2022-09-27T09:18:58.389Z,100.00
2022-09-27T09:21:48.661Z,100.00
2022-09-27T09:24:27.347Z,100.00
2022-09-27T09:27:04.573Z,100.00
2022-09-27T09:29:54.167Z,100.00
2022-09-27T09:32:34.645Z,100.00
2022-09-27T09:35:03.724Z,100.00
2022-09-27T09:37:39.003Z,100.00
2022-09-27T09:40:19.124Z,100.00
2022-09-27T09:42:55.763Z,99.40
2022-09-27T09:45:28.680Z,98.57
2022-09-27T09:48:04.455Z,97.12
2022-09-27T09:50:38.631Z,96.44
2022-09-27T09:53:16.132Z,94.20
2022-09-27T09:55:49.549Z,95.67
2022-09-27T09:58:24.999Z,95.95
2022-09-27T10:01:06.434Z,97.23
2022-09-27T10:03:34.328Z,98.75
2022-09-27T10:06:02.810Z,97.92
2022-09-27T10:08:30.730Z,97.96
2022-09-27T10:11:22.881Z,96.89
2022-09-27T10:13:59.891Z,95.47
2022-09-27T10:16:29.224Z,94.26
2022-09-27T10:19:03.913Z,93.39
2022-09-27T10:21:34.861Z,92.53
2022-09-27T10:24:13.698Z,91.99
2022-09-27T10:27:03.880Z,91.13
2022-09-27T10:29:39.554Z,89.97
2022-09-27T10:32:22.868Z,90.68
2022-09-27T10:34:52.285Z,92.50
2022-09-27T10:37:23.734Z,90.50
2022-09-27T10:40:25.946Z,88.89
2022-09-27T10:42:54.751Z,87.53
2022-09-27T10:45:31.673Z,87.85
2022-09-27T10:48:07.711Z,88.69
2022-09-27T10:50:59.553Z,89.93
2022-09-27T10:53:37.898Z,90.43
2022-09-27T10:56:23.121Z,91.22
2022-09-27T10:58:52.001Z,91.22
2022-09-27T11:01:23.234Z,89.81
2022-09-27T11:04:20.377Z,90.20
2022-09-27T11:06:49.761Z,88.48
2022-09-27T11:09:23.664Z,86.57
2022-09-27T11:12:07.342Z,85.43
2022-09-27T11:14:35.617Z,84.43
2022-09-27T11:17:17.737Z,85.80
2022-09-27T11:20:22.638Z,83.70
2022-09-27T11:23:19.346Z,84.89
2022-09-27T11:26:03.913Z,87.14
2022-09-27T11:28:43.266Z,92.18
2022-09-27T11:31:34.714Z,96.83
2022-09-27T11:34:33.461Z,97.43
2022-09-27T11:37:14.044Z,97.32
2022-09-27T11:39:56.211Z,95.75
2022-09-27T11:42:48.382Z,96.17
2022-09-27T11:45:50.532Z,95.70
2022-09-27T11:48:33.549Z,96.81
2022-09-27T11:51:16.677Z,96.11
2022-09-27T11:54:00.167Z,93.39
2022-09-27T11:56:41.321Z,93.21
2022-09-27T11:59:34.885Z,90.41
2022-09-27T12:02:13.510Z,89.44
2022-09-27T12:05:01.905Z,88.17
2022-09-27T12:07:42.622Z,86.72
2022-09-27T12:10:16.966Z,88.12
2022-09-27T12:12:52.035Z,90.85
2022-09-27T12:15:22.378Z,88.56
2022-09-27T12:17:53.502Z,87.64
2022-09-27T12:20:24.566Z,88.62
2022-09-27T12:23:00.639Z,89.15
2022-09-27T12:26:01.258Z,86.52
2022-09-27T12:28:40.836Z,87.20
2022-09-27T12:31:29.054Z,88.04
2022-09-27T12:34:13.356Z,88.91
2022-09-27T12:36:48.696Z,88.67
2022-09-27T12:39:23.545Z,86.77
2022-09-27T12:42:02.711Z,87.70
2022-09-27T12:44:44.784Z,88.31
2022-09-27T12:47:29.399Z,89.36
2022-09-27T12:50:04.784Z,88.12
2022-09-27T12:52:37.521Z,88.99
2022-09-27T12:55:37.401Z,89.10
2022-09-27T12:58:22.826Z,90.09
2022-09-27T13:00:59.258Z,88.91
2022-09-27T13:03:43.453Z,89.67
2022-09-27T13:06:39.014Z,88.53
2022-09-27T13:09:49.679Z,89.87
2022-09-27T13:12:23.492Z,89.86
2022-09-27T13:15:01.173Z,89.00
2022-09-27T13:17:54.464Z,89.47
2022-09-27T13:20:46.390Z,89.15
2022-09-27T13:23:57.919Z,88.88
2022-09-27T13:26:51.627Z,88.64
2022-09-27T13:29:34.053Z,89.16
2022-09-27T13:32:17.438Z,90.32
2022-09-27T13:35:20.399Z,89.54
2022-09-27T13:37:59.491Z,86.68
2022-09-27T13:40:40.875Z,87.19
2022-09-27T13:43:33.358Z,85.52
2022-09-27T13:46:09.678Z,83.74
2022-09-27T13:48:51.498Z,83.92
2022-09-27T13:51:32.553Z,83.30
2022-09-27T13:54:06.610Z,81.16
2022-09-27T13:56:56.385Z,81.63
2022-09-27T13:59:30.975Z,82.21
2022-09-27T14:02:26.601Z,83.63
2022-09-27T14:04:57.791Z,84.45
2022-09-27T14:07:32.907Z,84.56
2022-09-27T14:10:06.856Z,83.00
2022-09-27T14:12:42.350Z,84.03
2022-09-27T14:15:20.389Z,85.31
2022-09-27T14:17:49.880Z,84.65
2022-09-27T14:20:34.323Z,85.85
2022-09-27T14:23:05.121Z,85.31
2022-09-27T14:25:45.372Z,85.44
2022-09-27T14:28:26.746Z,86.61
2022-09-27T14:31:17.850Z,86.78
2022-09-27T14:34:09.282Z,87.67
2022-09-27T14:36:57.731Z,88.21
2022-09-27T14:39:32.551Z,88.20
2022-09-27T14:42:06.561Z,89.68
2022-09-27T14:44:36.145Z,91.44
2022-09-27T14:47:11.179Z,93.96
2022-09-27T14:49:49.442Z,96.05
2022-09-27T14:52:21.442Z,96.12
2022-09-27T15:04:04.588Z,93.83
2022-09-27T15:06:34.515Z,91.20
2022-09-27T15:09:02.576Z,90.80
2022-09-27T15:11:33.317Z,91.73
2022-09-27T15:14:05.603Z,89.66
2022-09-27T15:16:33.853Z,88.01
2022-09-27T15:19:03.998Z,86.75
2022-09-27T15:21:35.340Z,86.56
2022-09-27T15:24:03.626Z,87.41
2022-09-27T15:26:37.776Z,87.46
2022-09-27T15:29:06.097Z,87.24
2022-09-27T15:31:35.956Z,86.96
2022-09-27T15:34:06.090Z,87.69
2022-09-27T15:36:58.283Z,88.18
2022-09-27T15:39:32.828Z,88.30
2022-09-27T15:42:09.880Z,88.05
2022-09-27T15:44:47.671Z,87.91
2022-09-27T15:47:41.431Z,89.42
2022-09-27T15:50:35.138Z,90.92
2022-09-27T15:53:06.739Z,90.95
2022-09-27T15:55:40.551Z,91.29
2022-09-27T15:58:15.558Z,91.73
2022-09-27T16:00:52.799Z,91.81
2022-09-27T16:03:20.888Z,92.50
2022-09-27T16:05:48.699Z,93.33
2022-09-27T16:08:18.740Z,94.72
2022-09-27T16:10:51.391Z,95.25
2022-09-27T16:13:19.437Z,95.23
2022-09-27T16:15:49.282Z,96.11
2022-09-27T16:18:17.306Z,96.87
2022-09-27T16:20:45.301Z,96.67
2022-09-27T16:23:13.136Z,97.31
2022-09-27T16:25:42.254Z,97.69
2022-09-27T16:28:12.052Z,99.22
2022-09-27T16:30:39.883Z,98.60
2022-09-27T16:33:07.654Z,99.79
2022-09-27T16:35:35.437Z,99.63
2022-09-27T16:38:03.294Z,100.00
2022-09-27T16:40:32.037Z,100.00
2022-09-27T16:43:01.347Z,100.00
2022-09-27T16:45:34.126Z,100.00
2022-09-27T16:48:02.415Z,99.98
2022-09-27T16:50:47.834Z,97.70
2022-09-27T16:53:16.051Z,96.92
2022-09-27T16:55:43.829Z,97.07
2022-09-27T16:58:13.039Z,96.62
2022-09-27T17:00:42.087Z,96.26
2022-09-27T17:03:10.311Z,95.59
2022-09-27T17:05:38.088Z,95.53
2022-09-27T17:08:06.030Z,95.39
2022-09-27T17:10:35.724Z,93.62
2022-09-27T17:13:03.630Z,92.91
2022-09-27T17:15:32.955Z,92.01
2022-09-27T17:18:00.799Z,91.66
2022-09-27T17:20:28.595Z,91.80
2022-09-27T17:22:57.059Z,91.66
2022-09-27T17:25:24.921Z,92.18
2022-09-27T17:27:52.719Z,91.66
2022-09-27T17:30:20.949Z,92.48
2022-09-27T17:32:50.033Z,94.06
2022-09-27T17:35:18.060Z,95.14
2022-09-27T17:37:46.187Z,95.97
2022-09-27T17:40:14.498Z,96.24
2022-09-27T17:42:42.350Z,97.17
2022-09-27T17:45:10.936Z,98.13
2022-09-27T17:47:56.335Z,98.88
2022-09-27T17:50:25.485Z,100.00
2022-09-27T17:52:53.779Z,99.88
2022-09-27T17:55:22.461Z,100.00
2022-09-27T17:57:51.891Z,100.00
2022-09-27T18:00:20.631Z,100.00
2022-09-27T18:02:48.841Z,100.00
2022-09-27T18:05:18.369Z,100.00
2022-09-27T18:07:47.585Z,100.00
2022-09-27T18:10:16.720Z,100.00
2022-09-27T18:12:44.544Z,100.00
2022-09-27T18:15:12.623Z,100.00
2022-09-27T18:17:40.692Z,100.00
2022-09-27T18:20:09.327Z,100.00
2022-09-27T18:38:28.726Z,100.00
2022-09-27T19:59:35.465Z,100.00
2022-09-27T20:02:03.983Z,100.00
2022-09-27T20:11:06.187Z,100.00
2022-09-27T20:13:45.359Z,100.00
2022-09-27T20:16:32.392Z,100.00
2022-09-27T20:19:02.675Z,100.00
2022-09-27T20:24:42.981Z,100.00
2022-09-27T20:27:11.837Z,100.00
2022-09-27T20:29:41.232Z,100.00
2022-09-27T20:32:26.693Z,100.00
2022-09-27T20:38:11.663Z,100.00
2022-09-27T20:40:57.650Z,100.00
2022-09-27T20:46:21.264Z,100.00
2022-09-27T20:48:53.214Z,100.00
2022-09-27T20:51:32.866Z,100.00
2022-09-27T20:54:03.414Z,100.00
2022-09-27T20:56:33.732Z,100.00
2022-09-27T21:02:02.420Z,100.00
2022-09-27T21:04:31.622Z,100.00
2022-09-27T21:10:13.629Z,100.00
2022-09-27T21:15:44.676Z,100.00
2022-09-27T21:18:14.722Z,100.00
2022-09-27T21:20:45.059Z,100.00
2022-09-27T21:23:12.896Z,100.00
2022-09-27T21:25:43.021Z,100.00
2022-09-27T21:28:10.856Z,100.00
2022-09-27T21:30:38.729Z,100.00
2022-09-27T21:33:06.560Z,100.00
2022-09-27T21:38:36.885Z,100.00
2022-09-27T21:44:06.192Z,100.00
2022-09-27T21:46:34.449Z,100.00
2022-09-27T21:49:05.313Z,100.00
2022-09-27T21:51:36.469Z,100.00
2022-09-27T21:54:06.753Z,100.00
2022-09-27T21:56:37.466Z,100.00
2022-09-27T22:02:09.453Z,100.00
2022-09-27T22:10:44.461Z,100.00
2022-09-27T22:13:12.870Z,100.00
2022-09-27T22:15:46.814Z,100.00
2022-09-27T22:18:16.310Z,100.00
2022-09-27T22:20:44.317Z,100.00
2022-09-27T22:23:12.220Z,100.00
2022-09-27T22:25:40.217Z,100.00
2022-09-27T22:28:08.583Z,100.00
2022-09-27T22:30:50.479Z,100.00
2022-09-27T22:33:19.978Z,100.00
2022-09-27T22:35:48.191Z,100.00
2022-09-27T22:38:48.697Z,100.00
2022-09-27T22:41:17.156Z,100.00
2022-09-27T22:43:58.375Z,100.00
2022-09-27T22:46:26.669Z,100.00
2022-09-27T22:48:56.464Z,100.00
2022-09-27T22:51:24.266Z,100.00
2022-09-27T22:53:52.100Z,100.00
2022-09-27T22:59:32.844Z,100.00
2022-09-27T23:02:00.679Z,100.00
2022-09-27T23:04:29.861Z,100.00
2022-09-27T23:06:58.167Z,100.00
2022-09-27T23:09:26.834Z,100.00
2022-09-27T23:11:55.680Z,100.00
2022-09-27T23:14:23.679Z,100.00
2022-09-27T23:16:51.847Z,100.00
2022-09-27T23:22:22.666Z,100.00
2022-09-27T23:30:40.532Z,100.00
2022-09-27T23:33:08.957Z,100.00
2022-09-27T23:35:39.205Z,100.00
2022-09-27T23:38:08.406Z,100.00
2022-09-27T23:40:36.850Z,100.00
2022-09-27T23:43:04.745Z,100.00
2022-09-27T23:45:33.416Z,100.00
2022-09-27T23:48:02.675Z,100.00
2022-09-27T23:50:32.365Z,100.00
2022-09-27T23:53:00.643Z,100.00
2022-09-27T23:55:29.886Z,100.00
2022-09-27T23:57:57.743Z,100.00
